createdAt,value
2019-05-02T00:00:55.674Z,86.06
2019-05-02T00:03:26.263Z,85.57
2019-05-02T00:05:56.368Z,85.57
2019-05-02T00:08:29.323Z,85.97
2019-05-02T00:10:56.546Z,86.41
2019-05-02T00:13:26.776Z,86.63
2019-05-02T00:15:56.374Z,87.29
2019-05-02T00:18:25.874Z,87.46
2019-05-02T00:20:57.028Z,87.09
2019-05-02T00:23:29.536Z,86.82
2019-05-02T00:25:58.856Z,86.74
2019-05-02T00:28:27.890Z,86.89
2019-05-02T00:30:57.330Z,86.71
2019-05-02T00:33:29.201Z,86.88
2019-05-02T00:35:57.714Z,87.19
2019-05-02T00:38:33.385Z,86.99
2019-05-02T00:41:02.587Z,87.49
2019-05-02T00:43:36.628Z,87.41
2019-05-02T00:46:06.125Z,87.58
2019-05-02T00:48:42.788Z,87.17
2019-05-02T00:51:14.476Z,87.31
2019-05-02T00:53:44.493Z,87.49
2019-05-02T00:56:14.264Z,87.17
2019-05-02T00:58:44.928Z,87.38
2019-05-02T01:01:38.836Z,87.48
2019-05-02T01:04:29.013Z,86.96
2019-05-02T01:07:01.376Z,86.93
2019-05-02T01:09:33.480Z,87.04
2019-05-02T01:12:03.264Z,86.80
2019-05-02T01:14:34.758Z,86.71
2019-05-02T01:17:04.210Z,88.21
2019-05-02T01:19:33.550Z,87.39
2019-05-02T01:22:02.568Z,88.44
2019-05-02T01:24:39.427Z,88.95
2019-05-02T01:27:22.720Z,89.16
2019-05-02T01:30:01.681Z,88.86
2019-05-02T01:32:47.558Z,89.10
2019-05-02T01:35:26.964Z,89.48
2019-05-02T01:38:15.252Z,89.11
2019-05-02T01:40:53.219Z,88.99
2019-05-02T01:43:25.591Z,89.55
2019-05-02T01:45:56.602Z,89.05
2019-05-02T01:48:25.968Z,89.01
2019-05-02T01:50:55.686Z,89.10
2019-05-02T01:53:29.338Z,89.26
2019-05-02T01:55:59.338Z,89.20
2019-05-02T01:58:28.836Z,89.03
2019-05-02T02:01:01.288Z,88.92
2019-05-02T02:03:30.307Z,88.97
2019-05-02T02:06:02.785Z,89.26
2019-05-02T02:08:33.809Z,88.86
2019-05-02T02:11:03.466Z,89.25
2019-05-02T02:13:36.396Z,89.30
2019-05-02T02:16:06.745Z,89.29
2019-05-02T02:18:42.144Z,89.33
2019-05-02T02:21:43.327Z,88.68
2019-05-02T02:24:21.241Z,88.63
2019-05-02T02:26:49.920Z,88.86
2019-05-02T02:29:20.841Z,89.09
2019-05-02T02:31:50.181Z,89.41
2019-05-02T02:34:21.189Z,89.72
2019-05-02T02:36:50.318Z,89.51
2019-05-02T02:39:19.349Z,89.57
2019-05-02T02:41:52.286Z,89.22
2019-05-02T02:44:40.021Z,89.19
2019-05-02T02:47:11.961Z,88.89
2019-05-02T02:49:42.343Z,88.84
2019-05-02T02:52:11.538Z,89.18
2019-05-02T02:54:43.529Z,88.99
2019-05-02T02:57:20.871Z,88.90
2019-05-02T02:59:42.471Z,89.48
2019-05-02T03:02:13.605Z,90.44
2019-05-02T03:04:45.979Z,90.08
2019-05-02T03:07:24.503Z,90.01
2019-05-02T03:09:45.259Z,90.43
2019-05-02T03:12:36.278Z,89.76
2019-05-02T03:15:06.945Z,90.19
2019-05-02T03:17:36.015Z,90.17
2019-05-02T03:20:05.643Z,90.03
2019-05-02T03:22:41.386Z,89.98
2019-05-02T03:25:05.660Z,89.78
2019-05-02T03:27:37.156Z,89.67
2019-05-02T03:30:06.124Z,89.81
2019-05-02T03:32:36.928Z,89.73
2019-05-02T03:35:06.152Z,90.21
2019-05-02T03:37:35.201Z,90.20
2019-05-02T03:40:04.310Z,90.28
2019-05-02T03:42:45.170Z,90.27
2019-05-02T03:45:11.062Z,90.30
2019-05-02T03:47:43.706Z,90.27
2019-05-02T03:50:13.074Z,89.87
2019-05-02T03:52:46.290Z,89.78
2019-05-02T03:55:13.451Z,89.62
2019-05-02T03:57:43.685Z,89.90
2019-05-02T04:00:20.174Z,90.06
2019-05-02T04:02:44.275Z,90.02
2019-05-02T04:05:13.595Z,90.59
2019-05-02T04:07:43.151Z,90.94
2019-05-02T04:10:19.747Z,90.48
2019-05-02T04:12:53.047Z,90.70
2019-05-02T04:15:17.742Z,90.77
2019-05-02T04:17:48.638Z,91.03
2019-05-02T04:20:19.403Z,90.72
2019-05-02T04:22:50.669Z,90.88
2019-05-02T04:25:19.914Z,90.94
2019-05-02T04:27:50.948Z,90.27
2019-05-02T04:30:20.199Z,89.82
2019-05-02T04:32:55.846Z,89.35
2019-05-02T04:35:28.857Z,90.17
2019-05-02T04:38:00.973Z,90.12
2019-05-02T04:40:28.684Z,89.89
2019-05-02T04:43:02.039Z,90.50
2019-05-02T04:45:50.909Z,90.52
2019-05-02T04:48:04.082Z,91.26
2019-05-02T04:50:32.227Z,90.62
2019-05-02T04:53:01.281Z,89.25
2019-05-02T04:55:33.587Z,88.14
2019-05-02T04:58:03.218Z,88.36
2019-05-02T05:00:32.298Z,87.31
2019-05-02T05:03:07.238Z,86.49
2019-05-02T05:05:37.695Z,86.97
2019-05-02T05:08:07.748Z,87.11
2019-05-02T05:10:41.527Z,87.93
2019-05-02T05:13:12.134Z,87.12
2019-05-02T05:15:48.486Z,86.51
2019-05-02T05:18:14.277Z,86.70
2019-05-02T05:20:46.007Z,86.86
2019-05-02T05:23:18.267Z,86.85
2019-05-02T05:25:55.768Z,85.21
2019-05-02T05:28:22.676Z,84.92
2019-05-02T05:30:52.249Z,85.73
2019-05-02T05:33:22.164Z,85.35
2019-05-02T05:35:52.740Z,85.92
2019-05-02T05:38:22.939Z,85.56
2019-05-02T05:40:52.767Z,86.26
2019-05-02T05:43:21.809Z,85.34
2019-05-02T05:45:56.383Z,86.29
2019-05-02T05:48:21.637Z,84.99
2019-05-02T05:50:50.701Z,85.16
2019-05-02T05:53:21.973Z,84.17
2019-05-02T05:55:53.593Z,84.17
2019-05-02T05:58:22.213Z,83.23
2019-05-02T06:00:55.425Z,84.44
2019-05-02T06:03:22.399Z,83.96
2019-05-02T06:05:51.859Z,84.66
2019-05-02T06:08:21.175Z,84.69
2019-05-02T06:10:50.627Z,83.16
2019-05-02T06:13:19.644Z,83.35
2019-05-02T06:16:01.660Z,83.23
2019-05-02T06:18:20.127Z,83.86
2019-05-02T06:20:49.169Z,84.44
2019-05-02T06:23:18.221Z,84.60
2019-05-02T06:25:47.285Z,83.43
2019-05-02T06:28:16.303Z,82.96
2019-05-02T06:30:45.441Z,82.82
2019-05-02T06:33:14.543Z,83.19
2019-05-02T06:35:43.547Z,83.95
2019-05-02T06:38:12.629Z,83.94
2019-05-02T06:40:44.738Z,82.52
2019-05-02T06:43:16.864Z,84.44
2019-05-02T06:45:46.209Z,85.13
2019-05-02T06:48:17.781Z,84.95
2019-05-02T06:50:47.809Z,84.14
2019-05-02T06:53:16.833Z,82.81
2019-05-02T06:55:45.881Z,83.20
2019-05-02T06:58:16.944Z,82.96
2019-05-02T07:00:57.361Z,82.60
2019-05-02T07:03:17.708Z,81.95
2019-05-02T07:05:49.146Z,82.75
2019-05-02T07:08:19.042Z,80.90
2019-05-02T07:10:48.083Z,80.90
2019-05-02T07:13:17.254Z,81.46
2019-05-02T07:16:02.102Z,81.28
2019-05-02T07:18:35.393Z,82.74
2019-05-02T07:21:12.130Z,81.18
2019-05-02T07:23:39.307Z,81.18
2019-05-02T07:26:08.374Z,81.48
2019-05-02T07:28:40.461Z,82.13
2019-05-02T07:31:12.115Z,81.15
2019-05-02T07:33:41.417Z,81.31
2019-05-02T07:36:10.432Z,81.36
2019-05-02T07:38:39.786Z,81.97
2019-05-02T07:41:09.120Z,80.95
2019-05-02T07:43:38.366Z,80.95
2019-05-02T07:46:07.433Z,81.45
2019-05-02T07:48:38.986Z,80.47
2019-05-02T07:51:08.032Z,81.28
2019-05-02T07:53:37.805Z,81.63
2019-05-02T07:56:06.951Z,81.63
2019-05-02T07:58:38.485Z,82.82
2019-05-02T08:01:13.515Z,81.78
2019-05-02T08:03:45.783Z,82.29
2019-05-02T08:06:17.657Z,82.39
2019-05-02T08:08:46.677Z,82.74
2019-05-02T08:11:16.200Z,82.35
2019-05-02T08:13:49.465Z,82.41
2019-05-02T08:16:16.059Z,80.90
2019-05-02T08:18:45.553Z,81.48
2019-05-02T08:21:14.623Z,81.05
2019-05-02T08:23:43.669Z,81.97
2019-05-02T08:26:16.436Z,81.25
2019-05-02T08:28:51.870Z,81.38
2019-05-02T08:31:21.007Z,82.23
2019-05-02T08:33:50.138Z,82.17
2019-05-02T08:36:20.900Z,81.46
2019-05-02T08:38:53.587Z,80.89
2019-05-02T08:41:21.476Z,80.80
2019-05-02T08:43:51.249Z,80.52
2019-05-02T08:46:20.360Z,80.39
2019-05-02T08:48:50.817Z,79.67
2019-05-02T08:51:20.035Z,81.47
2019-05-02T08:53:52.054Z,81.21
2019-05-02T08:56:21.337Z,81.32
2019-05-02T08:58:51.207Z,80.50
2019-05-02T09:01:20.276Z,80.05
2019-05-02T09:03:55.049Z,79.90
2019-05-02T09:06:22.398Z,80.88
2019-05-02T09:08:52.883Z,80.10
2019-05-02T09:11:21.947Z,79.84
2019-05-02T09:13:52.604Z,81.04
2019-05-02T09:16:28.838Z,80.22
2019-05-02T09:18:54.146Z,80.15
2019-05-02T09:21:26.605Z,80.39
2019-05-02T09:23:54.256Z,80.18
2019-05-02T09:26:35.086Z,79.62
2019-05-02T09:28:56.321Z,78.76
2019-05-02T09:31:25.149Z,79.36
2019-05-02T09:33:55.695Z,79.64
2019-05-02T09:36:25.274Z,79.35
2019-05-02T09:38:57.889Z,79.31
2019-05-02T09:41:32.500Z,78.08
2019-05-02T09:43:59.598Z,76.42
2019-05-02T09:46:28.775Z,77.95
2019-05-02T09:49:04.335Z,77.63
2019-05-02T09:51:28.922Z,76.98
2019-05-02T09:54:02.594Z,78.59
2019-05-02T09:56:29.160Z,76.79
2019-05-02T09:59:06.198Z,77.11
2019-05-02T10:01:36.133Z,77.42
2019-05-02T10:04:07.431Z,76.13
2019-05-02T10:06:36.525Z,76.42
2019-05-02T10:09:07.908Z,77.95
2019-05-02T10:11:37.006Z,78.71
2019-05-02T10:14:06.505Z,78.69
2019-05-02T10:16:37.746Z,79.97
2019-05-02T10:19:10.676Z,79.98
2019-05-02T10:21:37.885Z,79.25
2019-05-02T10:24:09.821Z,79.75
2019-05-02T10:26:38.894Z,75.87
2019-05-02T10:29:08.403Z,76.23
2019-05-02T10:31:38.056Z,74.39
2019-05-02T10:34:08.563Z,76.13
2019-05-02T10:36:38.430Z,74.50
2019-05-02T10:39:08.315Z,75.63
2019-05-02T10:41:39.486Z,76.08
2019-05-02T10:44:08.109Z,75.80
2019-05-02T10:47:03.882Z,75.05
2019-05-02T10:49:57.709Z,74.72
2019-05-02T10:52:32.163Z,73.96
2019-05-02T10:54:58.179Z,72.39
2019-05-02T10:57:27.515Z,72.81
2019-05-02T10:59:56.742Z,71.22
2019-05-02T11:02:44.512Z,74.09
2019-05-02T11:05:21.822Z,73.95
2019-05-02T11:07:47.915Z,73.86
2019-05-02T11:10:18.127Z,73.66
2019-05-02T11:12:57.153Z,73.17
2019-05-02T11:15:43.754Z,74.07
2019-05-02T11:18:13.317Z,73.70
2019-05-02T11:20:42.676Z,75.40
2019-05-02T11:23:12.747Z,77.73
2019-05-02T11:25:42.187Z,77.60
2019-05-02T11:28:12.468Z,80.79
2019-05-02T11:30:42.053Z,81.09
2019-05-02T11:33:13.460Z,82.77
2019-05-02T11:35:49.191Z,82.19
2019-05-02T11:38:16.115Z,83.02
2019-05-02T11:40:43.726Z,82.20
2019-05-02T11:43:12.953Z,81.08
2019-05-02T11:45:42.487Z,82.21
2019-05-02T11:48:13.946Z,81.18
2019-05-02T11:50:42.763Z,82.83
2019-05-02T11:53:23.258Z,82.62
2019-05-02T11:55:43.857Z,82.77
2019-05-02T11:58:13.092Z,82.51
2019-05-02T12:00:48.017Z,81.83
2019-05-02T12:03:22.010Z,82.74
2019-05-02T12:05:52.446Z,82.78
2019-05-02T12:08:22.614Z,83.76
2019-05-02T12:10:52.055Z,82.88
2019-05-02T12:13:22.668Z,81.11
2019-05-02T12:15:52.232Z,82.05
2019-05-02T12:18:23.366Z,81.74
2019-05-02T12:20:52.474Z,82.51
2019-05-02T12:23:22.677Z,81.70
2019-05-02T12:25:52.146Z,81.76
2019-05-02T12:28:22.910Z,81.85
2019-05-02T12:30:54.273Z,80.58
2019-05-02T12:33:25.400Z,82.17
2019-05-02T12:35:58.780Z,81.85
2019-05-02T12:38:28.263Z,81.40
2019-05-02T12:40:57.988Z,80.41
2019-05-02T12:43:27.664Z,81.05
2019-05-02T12:45:56.886Z,81.16
2019-05-02T12:48:26.323Z,79.49
2019-05-02T12:50:58.798Z,82.14
2019-05-02T12:53:27.907Z,81.39
2019-05-02T12:55:56.941Z,81.31
2019-05-02T12:58:26.452Z,80.44
2019-05-02T13:00:55.564Z,81.07
2019-05-02T13:03:52.699Z,80.60
2019-05-02T13:06:24.584Z,82.96
2019-05-02T13:08:53.604Z,83.52
2019-05-02T13:11:42.205Z,82.31
2019-05-02T13:14:16.827Z,84.08
2019-05-02T13:16:40.388Z,83.17
2019-05-02T13:19:09.437Z,84.96
2019-05-02T13:21:50.110Z,84.47
2019-05-02T13:24:29.361Z,85.55
2019-05-02T13:26:59.514Z,85.65
2019-05-02T13:29:28.884Z,85.48
2019-05-02T13:32:08.744Z,83.08
2019-05-02T13:34:44.012Z,82.14
2019-05-02T13:37:16.862Z,83.23
2019-05-02T13:40:02.369Z,82.31
2019-05-02T13:42:31.322Z,80.42
2019-05-02T13:45:06.284Z,76.91
2019-05-02T13:47:35.409Z,73.73
2019-05-02T13:50:09.105Z,74.17
2019-05-02T13:52:38.130Z,71.07
2019-05-02T13:55:09.146Z,72.45
2019-05-02T13:57:43.122Z,71.76
2019-05-02T14:00:12.662Z,72.55
2019-05-02T14:02:42.817Z,73.49
2019-05-02T14:05:13.039Z,72.01
2019-05-02T14:07:48.137Z,70.06
2019-05-02T14:10:23.080Z,69.54
2019-05-02T14:13:03.278Z,64.44
2019-05-02T14:15:37.138Z,64.06
2019-05-02T14:18:06.474Z,63.38
2019-05-02T14:20:37.447Z,64.57
2019-05-02T14:23:07.272Z,65.76
2019-05-02T14:25:37.358Z,66.18
2019-05-02T14:28:06.803Z,64.41
2019-05-02T14:30:41.807Z,65.27
2019-05-02T14:33:14.887Z,66.64
2019-05-02T14:35:44.442Z,62.58
2019-05-02T14:38:14.638Z,63.57
2019-05-02T14:40:54.316Z,63.08
2019-05-02T14:43:44.488Z,65.21
2019-05-02T14:46:12.655Z,64.39
2019-05-02T14:48:45.297Z,65.22
2019-05-02T14:51:25.845Z,62.75
2019-05-02T14:53:49.586Z,62.34
2019-05-02T14:56:51.994Z,59.12
2019-05-02T14:59:22.683Z,60.26
2019-05-02T15:01:57.759Z,60.25
2019-05-02T15:04:25.648Z,60.93
2019-05-02T15:06:55.022Z,61.99
2019-05-02T15:09:26.726Z,62.00
2019-05-02T15:12:13.547Z,59.87
2019-05-02T15:14:35.860Z,59.17
2019-05-02T15:17:08.242Z,59.86
2019-05-02T15:19:37.597Z,63.18
2019-05-02T15:22:07.068Z,62.79
2019-05-02T15:24:37.924Z,61.86
2019-05-02T15:27:12.203Z,62.29
2019-05-02T15:29:38.083Z,62.58
2019-05-02T15:32:32.594Z,60.95
2019-05-02T15:35:13.010Z,62.58
2019-05-02T15:37:42.679Z,61.57
2019-05-02T15:40:46.759Z,60.44
2019-05-02T15:42:52.150Z,58.29
2019-05-02T15:45:23.824Z,60.99
2019-05-02T15:47:52.778Z,60.80
2019-05-02T15:50:25.518Z,61.58
2019-05-02T15:53:10.051Z,59.81
2019-05-02T15:55:40.137Z,60.74
2019-05-02T15:58:17.110Z,61.76
2019-05-02T16:00:52.041Z,62.38
2019-05-02T16:03:23.651Z,61.68
2019-05-02T16:05:53.034Z,61.35
2019-05-02T16:08:22.183Z,63.61
2019-05-02T16:10:54.410Z,61.34
2019-05-02T16:13:23.766Z,59.59
2019-05-02T16:15:57.174Z,58.93
2019-05-02T16:18:23.546Z,59.68
2019-05-02T16:21:05.574Z,58.70
2019-05-02T16:23:35.634Z,58.80
2019-05-02T16:26:06.436Z,61.48
2019-05-02T16:28:36.958Z,60.30
2019-05-02T16:31:09.680Z,60.37
2019-05-02T16:33:39.054Z,62.53
2019-05-02T16:36:08.530Z,61.48
2019-05-02T16:38:37.898Z,63.67
2019-05-02T16:41:09.871Z,63.84
2019-05-02T16:43:38.338Z,62.89
2019-05-02T16:46:11.881Z,63.58
2019-05-02T16:48:42.619Z,62.41
2019-05-02T16:51:27.589Z,63.64
2019-05-02T16:53:42.869Z,63.46
2019-05-02T16:56:12.196Z,64.20
2019-05-02T16:58:43.394Z,63.39
2019-05-02T17:01:19.641Z,64.23
2019-05-02T17:03:43.972Z,65.12
2019-05-02T17:06:16.993Z,64.94
2019-05-02T17:08:59.783Z,66.95
2019-05-02T17:11:38.629Z,66.57
2019-05-02T17:14:11.990Z,65.50
2019-05-02T17:16:38.476Z,68.01
2019-05-02T17:19:07.511Z,66.69
2019-05-02T17:21:52.913Z,67.44
2019-05-02T17:24:12.651Z,66.46
2019-05-02T17:26:42.295Z,66.33
2019-05-02T17:29:11.943Z,67.25
2019-05-02T17:31:42.680Z,68.56
2019-05-02T17:34:14.696Z,69.66
2019-05-02T17:36:45.889Z,68.81
2019-05-02T17:39:15.080Z,69.86
2019-05-02T17:41:45.763Z,69.26
2019-05-02T17:44:18.494Z,69.73
2019-05-02T17:46:50.749Z,70.17
2019-05-02T17:49:16.481Z,69.43
2019-05-02T17:52:18.305Z,69.68
2019-05-02T17:54:42.618Z,69.56
2019-05-02T17:57:11.899Z,69.67
2019-05-02T17:59:42.223Z,69.94
2019-05-02T18:02:15.788Z,69.33
2019-05-02T18:04:46.694Z,70.52
2019-05-02T18:07:18.109Z,69.02
2019-05-02T18:09:47.247Z,69.27
2019-05-02T18:12:16.708Z,70.98
2019-05-02T18:14:45.758Z,71.37
2019-05-02T18:17:15.223Z,71.12
2019-05-02T18:19:44.275Z,74.54
2019-05-02T18:22:23.446Z,72.86
2019-05-02T18:24:46.480Z,73.40
2019-05-02T18:27:15.664Z,74.60
2019-05-02T18:29:45.718Z,74.31
2019-05-02T18:32:17.452Z,75.34
2019-05-02T18:34:45.873Z,75.06
2019-05-02T18:37:15.401Z,77.43
2019-05-02T18:39:49.855Z,77.63
2019-05-02T18:42:22.002Z,78.27
2019-05-02T18:44:48.317Z,78.14
2019-05-02T18:47:20.126Z,78.12
2019-05-02T18:49:53.742Z,78.88
2019-05-02T18:52:19.678Z,79.61
2019-05-02T18:54:51.824Z,80.30
2019-05-02T18:57:24.509Z,80.45
2019-05-02T18:59:51.944Z,80.49
2019-05-02T19:02:26.324Z,80.40
2019-05-02T19:04:53.603Z,80.69
2019-05-02T19:07:32.504Z,81.61
2019-05-02T19:09:58.951Z,80.88
2019-05-02T19:12:27.366Z,81.41
2019-05-02T19:14:57.585Z,82.11
2019-05-02T19:17:30.230Z,81.50
2019-05-02T19:19:59.293Z,81.84
2019-05-02T19:22:28.363Z,81.82
2019-05-02T19:24:58.138Z,81.98
2019-05-02T19:27:45.043Z,82.09
2019-05-02T19:30:14.397Z,82.22
2019-05-02T19:32:43.540Z,82.24
2019-05-02T19:35:12.897Z,82.98
2019-05-02T19:37:46.066Z,82.98
2019-05-02T19:40:14.983Z,83.13
2019-05-02T19:42:45.046Z,82.52
2019-05-02T19:45:16.846Z,83.05
2019-05-02T19:47:48.924Z,83.26
2019-05-02T19:50:41.659Z,83.51
2019-05-02T19:53:14.904Z,83.67
2019-05-02T19:55:38.149Z,83.45
2019-05-02T19:58:07.397Z,83.42
2019-05-02T20:00:41.500Z,83.30
2019-05-02T20:03:07.949Z,83.37
2019-05-02T20:05:37.537Z,83.84
2019-05-02T20:08:09.627Z,84.00
2019-05-02T20:10:37.654Z,84.13
2019-05-02T20:13:06.845Z,84.85
2019-05-02T20:15:42.070Z,84.77
2019-05-02T20:18:11.933Z,84.63
2019-05-02T20:21:03.640Z,84.64
2019-05-02T20:23:35.546Z,84.70
2019-05-02T20:26:04.367Z,84.31
2019-05-02T20:28:33.796Z,84.54
2019-05-02T20:31:04.165Z,84.86
2019-05-02T20:33:34.044Z,85.26
2019-05-02T20:36:03.084Z,85.46
2019-05-02T20:38:32.552Z,85.77
2019-05-02T20:41:02.954Z,86.02
2019-05-02T20:43:32.428Z,86.55
2019-05-02T20:46:02.577Z,86.29
2019-05-02T20:48:32.430Z,86.47
2019-05-02T20:51:02.681Z,87.02
2019-05-02T20:53:34.197Z,87.13
2019-05-02T20:56:04.582Z,87.08
2019-05-02T20:58:34.251Z,86.96
2019-05-02T21:01:08.438Z,87.36
2019-05-02T21:03:35.987Z,87.22
2019-05-02T21:06:12.333Z,87.20
2019-05-02T21:09:18.855Z,87.22
2019-05-02T21:11:52.670Z,87.07
2019-05-02T21:14:21.802Z,87.27
2019-05-02T21:16:51.243Z,86.90
2019-05-02T21:19:21.748Z,87.02
2019-05-02T21:21:52.609Z,87.15
2019-05-02T21:24:22.171Z,87.04
2019-05-02T21:26:52.519Z,87.05
2019-05-02T21:29:25.049Z,88.03
2019-05-02T21:31:54.883Z,87.56
2019-05-02T21:34:25.688Z,87.83
2019-05-02T21:36:55.170Z,87.12
2019-05-02T21:39:24.268Z,86.98
2019-05-02T21:41:53.352Z,87.21
2019-05-02T21:44:22.761Z,88.51
2019-05-02T21:46:52.206Z,88.21
2019-05-02T21:49:55.215Z,87.88
2019-05-02T21:52:33.370Z,87.34
2019-05-02T21:55:25.682Z,87.54
2019-05-02T21:57:55.201Z,87.32
2019-05-02T22:00:46.764Z,87.45
2019-05-02T22:03:16.112Z,88.03
2019-05-02T22:05:45.321Z,88.08
2019-05-02T22:08:14.398Z,87.75
2019-05-02T22:10:43.756Z,87.62
2019-05-02T22:13:12.838Z,87.75
2019-05-02T22:15:42.103Z,87.03
2019-05-02T22:18:13.672Z,87.10
2019-05-02T22:20:42.889Z,87.31
2019-05-02T22:23:12.059Z,87.32
2019-05-02T22:25:41.969Z,87.01
2019-05-02T22:28:12.591Z,86.54
2019-05-02T22:30:42.911Z,86.25
2019-05-02T22:33:12.834Z,86.66
2019-05-02T22:35:45.440Z,87.07
2019-05-02T22:38:39.708Z,87.02
2019-05-02T22:41:08.771Z,86.82
2019-05-02T22:43:38.146Z,86.69
2019-05-02T22:46:08.896Z,86.07
2019-05-02T22:48:38.042Z,85.88
2019-05-02T22:51:07.872Z,85.82
2019-05-02T22:53:37.372Z,85.65
2019-05-02T22:56:08.275Z,85.26
2019-05-02T22:58:37.704Z,85.91
2019-05-02T23:01:07.214Z,86.78
2019-05-02T23:03:36.303Z,86.57
2019-05-02T23:06:05.476Z,86.97
2019-05-02T23:08:35.085Z,86.66
2019-05-02T23:11:04.201Z,86.82
2019-05-02T23:13:33.287Z,85.69
2019-05-02T23:16:02.934Z,85.98
2019-05-02T23:18:32.416Z,85.54
2019-05-02T23:21:02.205Z,85.96
2019-05-02T23:23:33.021Z,87.01
2019-05-02T23:26:39.384Z,87.23
2019-05-02T23:29:09.656Z,86.89
2019-05-02T23:31:39.896Z,86.32
2019-05-02T23:34:10.724Z,85.65
2019-05-02T23:36:41.641Z,86.64
2019-05-02T23:39:12.494Z,86.44
2019-05-02T23:41:42.227Z,87.64
2019-05-02T23:44:12.273Z,87.64
2019-05-02T23:46:42.421Z,87.31
2019-05-02T23:49:12.719Z,87.12
2019-05-02T23:51:42.836Z,87.81
2019-05-02T23:54:13.035Z,87.24
2019-05-02T23:56:43.188Z,87.24
2019-05-02T23:59:12.789Z,87.27
